createdAt,value
2017-11-03T00:02:03.763Z,5.54
2017-11-03T00:04:31.383Z,5.50
2017-11-03T00:06:59.060Z,5.49
2017-11-03T00:09:26.778Z,5.43
2017-11-03T00:11:54.397Z,5.39
2017-11-03T00:14:22.070Z,5.33
2017-11-03T00:16:49.735Z,5.31
2017-11-03T00:19:17.352Z,5.28
2017-11-03T00:21:45.015Z,5.33
2017-11-03T00:24:12.739Z,5.26
2017-11-03T00:26:40.345Z,5.25
2017-11-03T00:29:07.975Z,5.15
2017-11-03T00:31:35.647Z,5.14
2017-11-03T00:34:03.264Z,5.14
2017-11-03T00:36:30.871Z,5.12
2017-11-03T00:38:58.539Z,5.08
2017-11-03T00:41:26.148Z,5.07
2017-11-03T00:43:53.808Z,5.02
2017-11-03T00:46:21.523Z,5.00
2017-11-03T00:48:49.187Z,4.94
2017-11-03T00:51:16.851Z,4.93
2017-11-03T00:53:44.569Z,4.91
2017-11-03T00:56:12.167Z,4.90
2017-11-03T00:58:39.836Z,4.89
2017-11-03T01:01:07.499Z,4.92
2017-11-03T01:03:35.107Z,4.94
2017-11-03T01:06:02.731Z,4.98
2017-11-03T01:08:30.391Z,5.01
2017-11-03T01:10:58.008Z,4.97
2017-11-03T01:13:25.628Z,5.00
2017-11-03T01:15:53.348Z,4.99
2017-11-03T01:18:20.956Z,4.91
2017-11-03T01:20:48.568Z,4.94
2017-11-03T01:23:16.220Z,4.90
2017-11-03T01:25:43.832Z,4.89
2017-11-03T01:28:11.443Z,4.79
2017-11-03T01:30:39.115Z,4.78
2017-11-03T01:33:06.738Z,4.74
2017-11-03T01:35:34.355Z,4.71
2017-11-03T01:38:02.076Z,4.64
2017-11-03T01:40:29.751Z,4.62
2017-11-03T01:42:57.429Z,4.58
2017-11-03T01:45:25.159Z,4.55
2017-11-03T01:47:52.829Z,4.45
2017-11-03T01:50:20.439Z,4.42
2017-11-03T01:52:48.152Z,4.40
2017-11-03T01:55:15.769Z,4.41
2017-11-03T01:57:43.445Z,4.36
2017-11-03T02:00:11.133Z,4.33
2017-11-03T02:02:38.760Z,4.27
2017-11-03T02:05:06.452Z,4.21
2017-11-03T02:07:34.140Z,4.21
2017-11-03T02:10:01.765Z,4.17
2017-11-03T02:12:29.375Z,4.15
2017-11-03T02:14:57.028Z,4.11
2017-11-03T02:17:24.635Z,4.06
2017-11-03T02:19:52.320Z,3.99
2017-11-03T02:22:20.080Z,3.95
2017-11-03T02:24:47.687Z,3.95
2017-11-03T02:27:15.357Z,3.93
2017-11-03T02:29:43.982Z,3.96
2017-11-03T02:32:11.594Z,3.92
2017-11-03T02:34:39.215Z,3.91
2017-11-03T02:37:06.900Z,3.97
2017-11-03T02:39:34.540Z,3.98
2017-11-03T02:42:02.149Z,3.98
2017-11-03T02:44:29.831Z,3.92
2017-11-03T02:46:57.510Z,3.89
2017-11-03T02:49:25.179Z,3.88
2017-11-03T02:51:52.901Z,3.82
2017-11-03T02:54:20.560Z,3.83
2017-11-03T02:56:48.224Z,3.91
2017-11-03T02:59:15.894Z,3.96
2017-11-03T03:01:43.561Z,3.98
2017-11-03T03:04:11.163Z,3.96
2017-11-03T03:06:38.889Z,3.97
2017-11-03T03:09:06.504Z,3.98
2017-11-03T03:11:34.116Z,3.92
2017-11-03T03:14:01.788Z,3.92
2017-11-03T03:16:29.392Z,3.93
2017-11-03T03:18:57.000Z,3.92
2017-11-03T03:21:24.670Z,3.91
2017-11-03T03:23:52.331Z,3.93
2017-11-03T03:26:19.998Z,3.86
2017-11-03T03:28:47.646Z,3.83
2017-11-03T03:31:15.259Z,3.76
2017-11-03T03:33:42.956Z,3.77
2017-11-03T03:36:10.620Z,3.76
2017-11-03T03:38:38.244Z,3.75
2017-11-03T03:41:05.856Z,3.77
2017-11-03T03:43:33.563Z,3.77
2017-11-03T03:46:01.244Z,3.77
2017-11-03T03:48:28.916Z,3.78
2017-11-03T03:50:56.652Z,3.78
2017-11-03T03:53:24.275Z,3.78
2017-11-03T03:55:51.973Z,3.79
2017-11-03T03:58:19.663Z,3.88
2017-11-03T04:00:47.333Z,3.93
2017-11-03T04:03:15.019Z,3.97
2017-11-03T04:05:42.703Z,4.05
2017-11-03T04:08:10.303Z,4.10
2017-11-03T04:10:38.011Z,4.16
2017-11-03T04:13:05.696Z,4.20
2017-11-03T04:15:33.298Z,4.28
2017-11-03T04:18:00.983Z,4.34
2017-11-03T04:20:28.688Z,4.38
2017-11-03T04:22:56.312Z,4.43
2017-11-03T04:25:23.944Z,4.46
2017-11-03T04:27:51.684Z,4.48
2017-11-03T04:30:19.298Z,4.51
2017-11-03T04:32:46.976Z,4.52
2017-11-03T04:35:14.728Z,4.49
2017-11-03T04:37:42.412Z,4.46
2017-11-03T04:40:10.091Z,4.43
2017-11-03T04:42:37.762Z,4.39
2017-11-03T04:45:05.372Z,4.40
2017-11-03T04:47:32.983Z,4.44
2017-11-03T04:50:00.659Z,4.47
2017-11-03T04:52:28.338Z,4.54
2017-11-03T04:54:55.952Z,4.64
2017-11-03T04:57:23.623Z,4.67
2017-11-03T04:59:51.235Z,4.74
2017-11-03T05:02:18.852Z,4.80
2017-11-03T05:04:46.573Z,4.87
2017-11-03T05:07:14.244Z,4.86
2017-11-03T05:09:41.851Z,4.87
2017-11-03T05:12:09.523Z,4.87
2017-11-03T05:14:37.145Z,4.94
2017-11-03T05:17:04.763Z,4.98
2017-11-03T05:19:32.448Z,5.06
2017-11-03T05:22:00.060Z,5.12
2017-11-03T05:24:27.667Z,5.02
2017-11-03T05:26:55.344Z,5.07
2017-11-03T05:29:22.953Z,5.13
2017-11-03T05:31:50.588Z,5.15
2017-11-03T05:34:18.261Z,5.11
2017-11-03T05:36:45.898Z,5.13
2017-11-03T05:39:13.519Z,5.13
2017-11-03T05:41:41.192Z,5.17
2017-11-03T05:44:08.810Z,5.31
2017-11-03T05:46:36.496Z,5.46
2017-11-03T05:49:04.224Z,5.62
2017-11-03T05:51:31.832Z,5.77
2017-11-03T05:53:59.446Z,6.03
2017-11-03T05:56:27.113Z,6.20
2017-11-03T05:58:54.715Z,6.33
2017-11-03T06:01:22.333Z,6.44
2017-11-03T06:03:50.009Z,6.54
2017-11-03T06:06:17.672Z,6.63
2017-11-03T06:08:45.296Z,6.70
2017-11-03T06:11:12.960Z,6.79
2017-11-03T06:13:40.620Z,6.97
2017-11-03T06:16:08.227Z,7.09
2017-11-03T06:18:35.934Z,7.24
2017-11-03T06:21:03.597Z,7.29
2017-11-03T06:23:31.307Z,7.44
2017-11-03T06:25:58.972Z,7.56
2017-11-03T06:28:26.579Z,7.68
2017-11-03T06:30:54.188Z,7.81
2017-11-03T06:33:21.840Z,7.96
2017-11-03T06:35:49.450Z,8.14
2017-11-03T06:38:17.123Z,8.35
2017-11-03T06:40:44.849Z,8.71
2017-11-03T06:43:12.520Z,8.96
2017-11-03T06:45:40.126Z,9.20
2017-11-03T06:48:07.833Z,9.49
2017-11-03T06:50:35.508Z,9.75
2017-11-03T06:53:03.131Z,10.12
2017-11-03T06:55:30.803Z,10.38
2017-11-03T06:57:58.423Z,10.60
2017-11-03T07:00:26.047Z,10.67
2017-11-03T07:02:53.760Z,10.97
2017-11-03T07:05:21.367Z,10.96
2017-11-03T07:07:49.040Z,11.06
2017-11-03T07:10:16.732Z,11.19
2017-11-03T07:12:44.368Z,11.25
2017-11-03T07:15:11.985Z,11.39
2017-11-03T07:17:39.687Z,11.51
2017-11-03T07:20:07.371Z,11.73
2017-11-03T07:22:34.972Z,11.95
2017-11-03T07:25:02.693Z,12.06
2017-11-03T07:27:30.307Z,12.23
2017-11-03T07:29:57.930Z,12.50
2017-11-03T07:32:25.604Z,12.81
2017-11-03T07:34:53.230Z,12.96
2017-11-03T07:37:20.843Z,13.28
2017-11-03T07:39:48.575Z,13.51
2017-11-03T07:42:16.192Z,13.62
2017-11-03T07:44:43.933Z,13.80
2017-11-03T07:47:11.635Z,13.93
2017-11-03T07:49:39.299Z,14.14
2017-11-03T07:52:07.027Z,14.25
2017-11-03T07:54:34.701Z,14.32
2017-11-03T07:57:02.337Z,14.29
2017-11-03T07:59:29.951Z,14.45
2017-11-03T08:01:57.612Z,14.58
2017-11-03T08:04:25.224Z,14.41
2017-11-03T08:06:52.834Z,14.53
2017-11-03T08:09:20.509Z,14.68
2017-11-03T08:11:48.133Z,14.80
2017-11-03T08:14:15.803Z,14.76
2017-11-03T08:16:43.447Z,15.09
2017-11-03T08:19:11.121Z,15.52
2017-11-03T08:21:38.796Z,16.09
2017-11-03T08:24:06.452Z,16.64
2017-11-03T08:26:34.068Z,17.17
2017-11-03T08:29:01.747Z,17.73
2017-11-03T08:31:29.480Z,18.21
2017-11-03T08:33:57.156Z,18.47
2017-11-03T08:36:24.769Z,18.37
2017-11-03T08:38:52.520Z,18.71
2017-11-03T08:41:20.136Z,18.51
2017-11-03T08:43:47.809Z,18.40
2017-11-03T08:46:15.515Z,18.21
2017-11-03T08:48:43.192Z,18.03
2017-11-03T08:51:10.884Z,18.04
2017-11-03T08:53:38.619Z,17.89
2017-11-03T08:56:06.245Z,17.84
2017-11-03T08:58:33.920Z,17.47
2017-11-03T09:01:01.647Z,17.59
2017-11-03T09:03:29.260Z,17.54
2017-11-03T09:05:56.976Z,17.41
2017-11-03T09:08:24.672Z,17.39
2017-11-03T09:10:52.293Z,17.34
2017-11-03T09:13:19.930Z,17.22
2017-11-03T09:15:47.629Z,17.23
2017-11-03T09:18:15.253Z,17.16
2017-11-03T09:20:42.895Z,17.08
2017-11-03T09:23:10.582Z,17.25
2017-11-03T09:25:38.227Z,17.13
2017-11-03T09:28:05.847Z,17.38
2017-11-03T09:30:33.617Z,17.30
2017-11-03T09:33:01.310Z,17.45
2017-11-03T09:35:28.972Z,17.56
2017-11-03T09:37:56.707Z,17.68
2017-11-03T09:40:24.395Z,17.65
2017-11-03T09:42:52.056Z,17.70
2017-11-03T09:45:19.735Z,17.77
2017-11-03T09:47:47.344Z,17.81
2017-11-03T09:50:14.966Z,17.74
2017-11-03T09:52:42.688Z,17.68
2017-11-03T09:55:10.360Z,17.90
2017-11-03T09:57:37.977Z,17.91
2017-11-03T10:00:05.670Z,17.92
2017-11-03T10:02:33.313Z,17.96
2017-11-03T10:05:00.989Z,18.05
2017-11-03T10:07:28.674Z,18.16
2017-11-03T10:09:56.373Z,18.15
2017-11-03T10:12:24.037Z,18.07
2017-11-03T10:14:51.739Z,18.18
2017-11-03T10:17:19.361Z,18.22
2017-11-03T10:19:46.984Z,18.21
2017-11-03T10:22:14.655Z,18.30
2017-11-03T10:24:42.334Z,18.19
2017-11-03T10:27:09.945Z,18.28
2017-11-03T10:29:37.613Z,18.32
2017-11-03T10:32:05.285Z,18.44
2017-11-03T10:34:32.900Z,18.39
2017-11-03T10:37:00.615Z,18.05
2017-11-03T10:39:28.228Z,18.00
2017-11-03T10:41:55.856Z,18.07
2017-11-03T10:44:23.520Z,18.08
2017-11-03T10:46:51.201Z,18.26
2017-11-03T10:49:18.807Z,18.08
2017-11-03T10:51:46.614Z,18.05
2017-11-03T10:54:14.231Z,18.10
2017-11-03T10:56:41.852Z,18.00
2017-11-03T10:59:09.514Z,18.18
2017-11-03T11:01:37.172Z,17.96
2017-11-03T11:04:04.803Z,18.30
2017-11-03T11:06:32.545Z,18.42
2017-11-03T11:09:00.228Z,18.55
2017-11-03T11:11:27.912Z,18.73
2017-11-03T11:13:55.629Z,18.60
2017-11-03T11:16:23.300Z,18.99
2017-11-03T11:18:50.908Z,18.87
2017-11-03T11:21:18.598Z,18.94
2017-11-03T11:23:46.206Z,18.73
2017-11-03T11:26:13.899Z,18.74
2017-11-03T11:28:41.596Z,18.62
2017-11-03T11:31:09.208Z,18.67
2017-11-03T11:33:36.836Z,19.02
2017-11-03T11:36:04.548Z,18.69
2017-11-03T11:38:32.187Z,18.11
2017-11-03T11:40:59.807Z,18.08
2017-11-03T11:43:27.489Z,17.94
2017-11-03T11:45:55.198Z,17.85
2017-11-03T11:48:22.832Z,17.73
2017-11-03T11:50:50.532Z,17.68
2017-11-03T11:53:18.214Z,17.64
2017-11-03T11:55:45.900Z,17.82
2017-11-03T11:58:13.583Z,17.76
2017-11-03T12:00:41.402Z,17.62
2017-11-03T12:03:09.039Z,17.53
2017-11-03T12:05:36.715Z,17.56
2017-11-03T12:08:04.343Z,17.40
2017-11-03T12:10:32.027Z,17.40
2017-11-03T12:12:59.735Z,17.36
2017-11-03T12:15:27.362Z,17.42
2017-11-03T12:17:54.987Z,17.29
2017-11-03T12:20:22.728Z,17.37
2017-11-03T12:22:50.426Z,17.43
2017-11-03T12:25:18.102Z,17.35
2017-11-03T12:27:45.804Z,17.34
2017-11-03T12:30:13.443Z,17.20
2017-11-03T12:32:41.080Z,17.30
2017-11-03T12:35:08.837Z,17.49
2017-11-03T12:37:36.465Z,17.42
2017-11-03T12:40:04.099Z,17.33
2017-11-03T12:42:31.892Z,17.28
2017-11-03T12:44:59.514Z,17.03
2017-11-03T12:47:27.207Z,16.78
2017-11-03T12:49:54.885Z,16.62
2017-11-03T12:52:22.662Z,16.45
2017-11-03T12:54:50.284Z,16.36
2017-11-03T12:57:17.970Z,16.23
2017-11-03T12:59:45.600Z,16.22
2017-11-03T13:02:13.276Z,16.22
2017-11-03T13:04:40.974Z,16.29
2017-11-03T13:07:08.616Z,16.32
2017-11-03T13:09:36.316Z,16.32
2017-11-03T13:12:03.996Z,16.36
2017-11-03T13:14:31.672Z,16.55
2017-11-03T13:16:59.364Z,16.61
2017-11-03T13:19:27.044Z,16.64
2017-11-03T13:21:54.723Z,16.62
2017-11-03T13:24:22.410Z,16.67
2017-11-03T13:26:50.158Z,16.73
2017-11-03T13:29:17.848Z,16.73
2017-11-03T13:31:45.527Z,16.69
2017-11-03T13:34:13.232Z,16.71
2017-11-03T13:36:40.880Z,16.73
2017-11-03T13:39:08.506Z,16.68
2017-11-03T13:41:36.291Z,16.67
2017-11-03T13:44:04.028Z,16.76
2017-11-03T13:46:31.713Z,16.71
2017-11-03T13:48:59.443Z,16.78
2017-11-03T13:51:27.079Z,16.77
2017-11-03T13:53:54.713Z,16.71
2017-11-03T13:56:22.535Z,16.59
2017-11-03T13:58:50.219Z,16.55
2017-11-03T14:01:17.841Z,16.53
2017-11-03T14:03:46.547Z,16.51
2017-11-03T14:06:14.239Z,16.50
2017-11-03T14:08:41.892Z,16.52
2017-11-03T14:11:09.651Z,16.56
2017-11-03T14:13:37.276Z,16.50
2017-11-03T14:16:04.891Z,16.50
2017-11-03T14:18:32.573Z,16.49
2017-11-03T14:21:00.191Z,16.47
2017-11-03T14:23:27.864Z,16.43
2017-11-03T14:25:55.556Z,16.39
2017-11-03T14:28:23.160Z,16.29
2017-11-03T14:30:50.771Z,16.23
2017-11-03T14:33:18.435Z,16.16
2017-11-03T14:35:46.052Z,16.06
2017-11-03T14:38:13.684Z,15.98
2017-11-03T14:40:41.907Z,15.84
2017-11-03T14:43:09.524Z,15.74
2017-11-03T14:45:37.143Z,15.67
2017-11-03T14:48:05.267Z,15.61
2017-11-03T14:50:32.937Z,15.59
2017-11-03T14:53:00.558Z,15.49
2017-11-03T14:55:28.291Z,15.45
2017-11-03T14:57:55.973Z,15.43
2017-11-03T15:00:23.590Z,15.39
2017-11-03T15:02:51.271Z,15.33
2017-11-03T15:05:18.892Z,15.23
2017-11-03T15:07:47.331Z,15.20
2017-11-03T15:10:15.003Z,15.15
2017-11-03T15:12:43.504Z,15.14
2017-11-03T15:15:11.184Z,15.08
2017-11-03T15:17:39.503Z,14.96
2017-11-03T15:20:07.131Z,14.91
2017-11-03T15:22:34.796Z,14.85
2017-11-03T15:25:02.529Z,14.85
2017-11-03T15:27:30.209Z,14.76
2017-11-03T15:29:57.896Z,14.75
2017-11-03T15:32:25.627Z,14.75
2017-11-03T15:34:53.254Z,14.72
2017-11-03T15:37:20.902Z,14.74
2017-11-03T15:39:48.567Z,14.72
2017-11-03T15:42:16.185Z,14.71
2017-11-03T15:44:43.801Z,14.75
2017-11-03T15:47:11.471Z,14.75
2017-11-03T15:49:39.156Z,14.75
2017-11-03T15:52:06.836Z,14.76
2017-11-03T15:54:34.584Z,14.79
2017-11-03T15:57:02.194Z,14.80
2017-11-03T15:59:29.880Z,14.80
2017-11-03T16:01:57.636Z,14.80
2017-11-03T16:04:25.251Z,14.74
2017-11-03T16:06:52.871Z,14.73
2017-11-03T16:09:20.532Z,14.67
2017-11-03T16:11:48.212Z,14.64
2017-11-03T16:14:15.892Z,14.51
2017-11-03T16:16:43.640Z,14.42
2017-11-03T16:19:11.251Z,14.41
2017-11-03T16:21:38.880Z,14.33
2017-11-03T16:24:06.599Z,14.27
2017-11-03T16:26:34.284Z,14.16
2017-11-03T16:29:01.900Z,14.08
2017-11-03T16:31:29.571Z,14.00
2017-11-03T16:33:57.195Z,13.89
2017-11-03T16:36:24.816Z,13.83
2017-11-03T16:38:52.560Z,13.80
2017-11-03T16:41:20.180Z,13.75
2017-11-03T16:43:47.903Z,13.72
2017-11-03T16:46:15.642Z,13.67
2017-11-03T16:48:43.316Z,13.62
2017-11-03T16:51:10.940Z,13.56
2017-11-03T16:53:38.615Z,13.55
2017-11-03T16:56:06.359Z,13.54
2017-11-03T16:58:33.967Z,13.52
2017-11-03T17:01:01.657Z,13.45
2017-11-03T17:03:29.287Z,13.47
2017-11-03T17:05:56.908Z,13.44
2017-11-03T17:08:24.581Z,13.38
2017-11-03T17:10:52.208Z,13.37
2017-11-03T17:13:19.931Z,13.34
2017-11-03T17:15:47.670Z,13.34
2017-11-03T17:18:15.294Z,13.28
2017-11-03T17:20:42.968Z,13.27
2017-11-03T17:23:10.692Z,13.20
2017-11-03T17:25:38.360Z,13.21
2017-11-03T17:28:05.985Z,13.19
2017-11-03T17:30:33.743Z,13.21
2017-11-03T17:33:01.360Z,13.21
2017-11-03T17:35:28.969Z,13.21
2017-11-03T17:37:56.632Z,13.17
2017-11-03T17:40:24.243Z,13.15
2017-11-03T17:42:51.861Z,13.15
2017-11-03T17:45:19.535Z,13.14
2017-11-03T17:47:47.275Z,13.16
2017-11-03T17:50:14.899Z,13.19
2017-11-03T17:52:42.568Z,13.25
2017-11-03T17:55:10.181Z,13.27
2017-11-03T17:57:37.808Z,13.27
2017-11-03T18:00:05.564Z,13.30
2017-11-03T18:02:33.179Z,13.33
2017-11-03T18:05:00.820Z,13.41
2017-11-03T18:07:28.561Z,13.47
2017-11-03T18:09:56.304Z,13.51
2017-11-03T18:12:23.932Z,13.52
2017-11-03T18:14:51.612Z,13.57
2017-11-03T18:17:19.225Z,13.58
2017-11-03T18:19:46.867Z,13.63
2017-11-03T18:22:14.670Z,13.65
2017-11-03T18:24:42.376Z,13.65
2017-11-03T18:27:10.009Z,13.65
2017-11-03T18:29:37.834Z,13.63
2017-11-03T18:32:05.516Z,13.64
2017-11-03T18:34:33.154Z,13.72
2017-11-03T18:37:00.829Z,13.73
2017-11-03T18:39:28.500Z,13.77
2017-11-03T18:41:56.130Z,13.80
2017-11-03T18:44:23.800Z,13.75
2017-11-03T18:46:51.476Z,13.79
2017-11-03T18:49:19.215Z,13.77
2017-11-03T18:51:46.913Z,13.79
2017-11-03T18:54:14.624Z,13.77
2017-11-03T18:56:42.239Z,13.73
2017-11-03T18:59:09.927Z,13.73
2017-11-03T19:01:37.617Z,13.78
2017-11-03T19:04:05.252Z,13.75
2017-11-03T19:06:32.984Z,13.74
2017-11-03T19:09:00.619Z,13.77
2017-11-03T19:11:28.251Z,13.73
2017-11-03T19:13:55.939Z,13.73
2017-11-03T19:16:23.630Z,13.70
2017-11-03T19:18:51.252Z,13.75
2017-11-03T19:21:18.948Z,13.77
2017-11-03T19:23:46.627Z,13.73
2017-11-03T19:26:14.241Z,13.71
2017-11-03T19:28:41.923Z,13.66
2017-11-03T19:31:09.550Z,13.66
2017-11-03T19:33:37.187Z,13.60
2017-11-03T19:36:04.907Z,13.59
2017-11-03T19:38:32.579Z,13.62
2017-11-03T19:41:00.258Z,13.63
2017-11-03T19:43:27.939Z,13.63
2017-11-03T19:45:55.558Z,13.62
2017-11-03T19:48:23.211Z,13.58
2017-11-03T19:50:50.868Z,13.58
2017-11-03T19:53:18.502Z,13.55
2017-11-03T19:55:46.635Z,13.53
2017-11-03T19:58:14.364Z,13.53
2017-11-03T20:00:42.016Z,13.50
2017-11-03T20:03:09.642Z,13.47
2017-11-03T20:05:37.305Z,13.44
2017-11-03T20:08:05.017Z,13.45
2017-11-03T20:10:32.704Z,13.44
2017-11-03T20:13:00.384Z,13.39
2017-11-03T20:15:28.065Z,13.35
2017-11-03T20:17:55.752Z,13.28
2017-11-03T20:20:23.484Z,13.23
2017-11-03T20:22:51.096Z,13.09
2017-11-03T20:25:18.723Z,13.08
2017-11-03T20:27:46.409Z,13.02
2017-11-03T20:30:14.027Z,12.95
2017-11-03T20:32:41.660Z,12.85
2017-11-03T20:35:09.327Z,12.77
2017-11-03T20:37:36.957Z,12.76
2017-11-03T20:40:04.611Z,12.75
2017-11-03T20:42:32.351Z,12.74
2017-11-03T20:45:00.031Z,12.77
2017-11-03T20:47:27.646Z,12.78
2017-11-03T20:49:55.380Z,12.79
2017-11-03T20:52:23.010Z,12.81
2017-11-03T20:54:50.624Z,12.78
2017-11-03T20:57:18.633Z,12.80
2017-11-03T20:59:46.255Z,12.80
2017-11-03T21:02:13.938Z,12.81
2017-11-03T21:04:41.618Z,12.83
2017-11-03T21:07:09.302Z,12.78
2017-11-03T21:09:36.928Z,12.73
2017-11-03T21:12:04.627Z,12.71
2017-11-03T21:14:32.258Z,12.77
2017-11-03T21:16:59.883Z,12.74
2017-11-03T21:19:27.656Z,12.76
2017-11-03T21:21:55.327Z,12.76
2017-11-03T21:24:23.011Z,12.76
2017-11-03T21:26:50.679Z,12.69
2017-11-03T21:29:18.360Z,12.74
2017-11-03T21:31:45.975Z,12.73
2017-11-03T21:34:13.733Z,12.78
2017-11-03T21:36:41.348Z,12.81
2017-11-03T21:39:08.971Z,12.84
2017-11-03T21:41:36.641Z,12.80
2017-11-03T21:44:04.258Z,12.78
2017-11-03T21:46:31.932Z,12.79
2017-11-03T21:48:59.700Z,12.82
2017-11-03T21:51:27.317Z,12.80
2017-11-03T21:53:54.998Z,12.77
2017-11-03T21:56:22.670Z,12.81
2017-11-03T21:58:50.287Z,12.74
2017-11-03T22:01:17.899Z,12.74
2017-11-03T22:03:45.564Z,12.69
2017-11-03T22:06:13.248Z,12.73
2017-11-03T22:08:40.878Z,12.73
2017-11-03T22:11:08.552Z,12.72
2017-11-03T22:13:36.232Z,12.69
2017-11-03T22:16:04.041Z,12.67
2017-11-03T22:18:31.780Z,12.65
2017-11-03T22:20:59.395Z,12.63
2017-11-03T22:23:27.072Z,12.58
2017-11-03T22:25:54.820Z,12.58
2017-11-03T22:28:22.436Z,12.57
2017-11-03T22:30:50.121Z,12.56
2017-11-03T22:33:17.794Z,12.54
2017-11-03T22:35:45.399Z,12.53
2017-11-03T22:38:13.067Z,12.52
2017-11-03T22:40:40.727Z,12.49
2017-11-03T22:43:08.344Z,12.51
2017-11-03T22:45:35.967Z,12.43
2017-11-03T22:48:03.701Z,12.45
2017-11-03T22:50:31.391Z,12.43
2017-11-03T22:52:59.003Z,12.42
2017-11-03T22:55:26.729Z,12.41
2017-11-03T22:57:54.400Z,12.42
2017-11-03T23:00:22.011Z,12.37
2017-11-03T23:02:49.716Z,12.37
2017-11-03T23:05:17.326Z,12.30
2017-11-03T23:07:45.002Z,12.29
2017-11-03T23:10:12.726Z,12.27
2017-11-03T23:12:40.424Z,12.25
2017-11-03T23:15:08.109Z,12.24
2017-11-03T23:17:35.837Z,12.21
2017-11-03T23:20:03.571Z,12.19
2017-11-03T23:22:31.191Z,12.17
2017-11-03T23:24:58.857Z,12.13
2017-11-03T23:27:26.547Z,12.09
2017-11-03T23:29:54.236Z,12.09
2017-11-03T23:32:21.903Z,12.05
2017-11-03T23:34:49.580Z,12.06
2017-11-03T23:37:17.269Z,12.04
2017-11-03T23:39:44.932Z,12.04
2017-11-03T23:42:12.552Z,12.06
2017-11-03T23:44:40.163Z,12.10
2017-11-03T23:47:07.940Z,12.13
2017-11-03T23:49:35.559Z,12.17
2017-11-03T23:52:03.181Z,12.20
2017-11-03T23:54:30.924Z,12.22
2017-11-03T23:56:58.600Z,12.24
2017-11-03T23:59:26.232Z,12.25
